Farm — LBHF — position and weather

sailwx.info

Track history (hours):
 
Tides and Currents Weather Stations Pressure Air Temp Water Temp Dewpoint Dewpoint Depression Visibility Wind Speed Wind Dir Waves Ship Positions

Farm

Last reported at 2015-Feb-25 20:16 UTC. Time now 2015-Mar-29 04:29 UTC.
Position N 69°35' E 018°51'.
Warning: this ship's position is 31 days out of date.

Length 46 m.

Type: Law enforcement. MMSI: 257069200.

Date/timePositionNaut miles runAvg speedWind from/ knotsBaromVisibWave heightAir tempDewpointWater temp
2015-Feb-25 20:16N 69°35' E 018°51'5 6.5
2015-Feb-25 19:33N 69°40' E 018°51'85 4.7
2015-Feb-25 01:34N 70°27' E 022°19'7 5.7
2015-Feb-25 00:25N 70°29' E 022°38'5 6.1
2015-Feb-24 23:34N 70°30' E 022°53'6 5.7
2015-Feb-24 22:33N 70°34' E 023°06'5 5.3
2015-Feb-24 21:34N 70°38' E 023°18'5 5.5
2015-Feb-24 20:34N 70°39' E 023°34'2 2.1
2015-Feb-24 19:34N 70°40' E 023°40'0 0.4
2015-Feb-24 18:33N 70°40' E 023°41'0 0.0
2015-Feb-24 17:34N 70°40' E 023°41'0 0.0
2015-Feb-24 16:34N 70°40' E 023°41'0 0.0
2015-Feb-24 15:34N 70°40' E 023°41'0 0.0
2015-Feb-24 14:33N 70°40' E 023°41'0 0.0
2015-Feb-24 13:34N 70°40' E 023°41'0 0.0
2015-Feb-24 12:34N 70°40' E 023°41'0 0.1
2015-Feb-24 11:33N 70°40' E 023°41'0 0.1
2015-Feb-24 10:34N 70°40' E 023°41'0 0.0
2015-Feb-24 09:34N 70°40' E 023°41'0 0.0
2015-Feb-24 08:34N 70°40' E 023°41'0 0.0
2015-Feb-24 07:32N 70°40' E 023°41'0 0.0
2015-Feb-24 06:32N 70°40' E 023°41'0 0.0
2015-Feb-24 05:32N 70°40' E 023°41'0 0.0
2015-Feb-24 04:29N 70°40' E 023°41'0 0.0
2015-Feb-24 03:32N 70°40' E 023°41'0 0.0
2015-Feb-24 02:32N 70°40' E 023°41'0 0.0
2015-Feb-24 01:32N 70°40' E 023°41'0 0.0
2015-Feb-24 00:32N 70°40' E 023°41'0 0.0
2015-Feb-23 23:32N 70°40' E 023°41'0 0.0
2015-Feb-23 22:32N 70°40' E 023°41'0 0.0
2015-Feb-23 21:32N 70°40' E 023°41'0 0.0
2015-Feb-23 20:32N 70°40' E 023°41'0 0.0
2015-Feb-23 19:32N 70°40' E 023°41'0 0.0
2015-Feb-23 18:32N 70°40' E 023°41'0 0.0
2015-Feb-23 17:32N 70°40' E 023°41'0 0.0
2015-Feb-23 16:32N 70°40' E 023°41'0 0.1
2015-Feb-23 15:33N 70°40' E 023°41'2 1.5
2015-Feb-23 14:34N 70°40' E 023°36'0 0.4
2015-Feb-23 13:33N 70°40' E 023°38'0 0.1
2015-Feb-23 12:33N 70°40' E 023°37'1 0.6
2015-Feb-23 11:33N 70°40' E 023°36'  
Track history (hours):
 
Tides and Currents Weather Stations Pressure Air Temp Water Temp Dewpoint Dewpoint Depression Visibility Wind Speed Wind Dir Waves Ship Positions

Farm

Last reported at 2015-Feb-25 20:16 UTC. Time now 2015-Mar-29 04:29 UTC.
Position N 69°35' E 018°51'.
Warning: this ship's position is 31 days out of date.

Length 46 m.

Type: Law enforcement. MMSI: 257069200.

Date/timePositionNaut miles runAvg speedWind from/ knotsBaromVisibWave heightAir tempDewpointWater temp
2015-Feb-25 20:16N 69°35' E 018°51'5 6.5
2015-Feb-25 19:33N 69°40' E 018°51'85 4.7
2015-Feb-25 01:34N 70°27' E 022°19'7 5.7
2015-Feb-25 00:25N 70°29' E 022°38'5 6.1
2015-Feb-24 23:34N 70°30' E 022°53'6 5.7
2015-Feb-24 22:33N 70°34' E 023°06'5 5.3
2015-Feb-24 21:34N 70°38' E 023°18'5 5.5
2015-Feb-24 20:34N 70°39' E 023°34'2 2.1
2015-Feb-24 19:34N 70°40' E 023°40'0 0.4
2015-Feb-24 18:33N 70°40' E 023°41'0 0.0
2015-Feb-24 17:34N 70°40' E 023°41'0 0.0
2015-Feb-24 16:34N 70°40' E 023°41'0 0.0
2015-Feb-24 15:34N 70°40' E 023°41'0 0.0
2015-Feb-24 14:33N 70°40' E 023°41'0 0.0
2015-Feb-24 13:34N 70°40' E 023°41'0 0.0
2015-Feb-24 12:34N 70°40' E 023°41'0 0.1
2015-Feb-24 11:33N 70°40' E 023°41'0 0.1
2015-Feb-24 10:34N 70°40' E 023°41'0 0.0
2015-Feb-24 09:34N 70°40' E 023°41'0 0.0
2015-Feb-24 08:34N 70°40' E 023°41'0 0.0
2015-Feb-24 07:32N 70°40' E 023°41'0 0.0
2015-Feb-24 06:32N 70°40' E 023°41'0 0.0
2015-Feb-24 05:32N 70°40' E 023°41'0 0.0
2015-Feb-24 04:29N 70°40' E 023°41'0 0.0
2015-Feb-24 03:32N 70°40' E 023°41'0 0.0
2015-Feb-24 02:32N 70°40' E 023°41'0 0.0
2015-Feb-24 01:32N 70°40' E 023°41'0 0.0
2015-Feb-24 00:32N 70°40' E 023°41'0 0.0
2015-Feb-23 23:32N 70°40' E 023°41'0 0.0
2015-Feb-23 22:32N 70°40' E 023°41'0 0.0
2015-Feb-23 21:32N 70°40' E 023°41'0 0.0
2015-Feb-23 20:32N 70°40' E 023°41'0 0.0
2015-Feb-23 19:32N 70°40' E 023°41'0 0.0
2015-Feb-23 18:32N 70°40' E 023°41'0 0.0
2015-Feb-23 17:32N 70°40' E 023°41'0 0.0
2015-Feb-23 16:32N 70°40' E 023°41'0 0.1
2015-Feb-23 15:33N 70°40' E 023°41'2 1.5
2015-Feb-23 14:34N 70°40' E 023°36'0 0.4
2015-Feb-23 13:33N 70°40' E 023°38'0 0.1
2015-Feb-23 12:33N 70°40' E 023°37'1 0.6
2015-Feb-23 11:33N 70°40' E 023°36'  

Dump ship's entire track history